createdAt,value
2018-04-25T00:00:42.112Z,11.73
2018-04-25T00:03:13.147Z,12.27
2018-04-25T00:05:44.189Z,14.23
2018-04-25T00:08:15.217Z,11.23
2018-04-25T00:10:46.250Z,11.57
2018-04-25T00:13:17.267Z,11.07
2018-04-25T00:15:48.303Z,12.80
2018-04-25T00:18:19.298Z,10.43
2018-04-25T00:20:50.406Z,11.00
2018-04-25T00:23:21.401Z,11.10
2018-04-25T00:25:52.434Z,10.90
2018-04-25T00:28:23.431Z,11.83
2018-04-25T00:30:54.414Z,11.97
2018-04-25T00:33:25.422Z,11.23
2018-04-25T00:35:56.464Z,14.40
2018-04-25T00:38:27.435Z,11.43
2018-04-25T00:40:58.452Z,10.47
2018-04-25T00:43:29.483Z,10.83
2018-04-25T00:46:00.517Z,10.97
2018-04-25T00:48:31.583Z,10.83
2018-04-25T00:51:02.581Z,11.17
2018-04-25T00:53:33.652Z,9.83
2018-04-25T00:56:04.675Z,10.60
2018-04-25T00:58:35.690Z,9.37
2018-04-25T01:01:06.668Z,9.83
2018-04-25T01:03:37.744Z,11.87
2018-04-25T01:06:08.752Z,10.20
2018-04-25T01:08:39.747Z,10.27
2018-04-25T01:11:10.786Z,10.73
2018-04-25T01:13:41.819Z,9.73
2018-04-25T01:16:12.844Z,10.97
2018-04-25T01:18:43.851Z,10.87
2018-04-25T01:21:15.024Z,9.57
2018-04-25T01:23:46.071Z,9.47
2018-04-25T01:26:17.149Z,10.40
2018-04-25T01:28:48.174Z,10.30
2018-04-25T01:31:24.066Z,10.47
2018-04-25T01:33:57.882Z,10.30
2018-04-25T01:36:44.792Z,10.40
2018-04-25T01:39:19.715Z,9.67
2018-04-25T01:41:50.796Z,10.77
2018-04-25T01:44:26.774Z,10.83
2018-04-25T01:47:00.669Z,10.03
2018-04-25T01:49:36.724Z,10.43
2018-04-25T01:52:19.894Z,10.03
2018-04-25T01:55:03.197Z,13.17
2018-04-25T01:57:46.499Z,10.23
2018-04-25T02:00:29.844Z,8.47
2018-04-25T02:03:00.642Z,10.00
2018-04-25T02:05:31.603Z,8.27
2018-04-25T02:08:02.593Z,9.67
2018-04-25T02:10:33.581Z,9.43
2018-04-25T02:13:04.559Z,9.37
2018-04-25T02:15:35.527Z,10.20
2018-04-25T02:18:06.536Z,10.57
2018-04-25T02:20:37.576Z,9.50
2018-04-25T02:23:08.548Z,9.33
2018-04-25T02:25:39.553Z,9.90
2018-04-25T02:28:10.568Z,9.60
2018-04-25T02:30:41.612Z,10.20
2018-04-25T02:33:12.624Z,10.03
2018-04-25T02:35:43.744Z,10.07
2018-04-25T02:38:14.728Z,11.30
2018-04-25T02:40:45.725Z,9.37
2018-04-25T02:43:16.776Z,9.27
2018-04-25T02:45:47.788Z,9.43
2018-04-25T02:48:18.811Z,9.73
2018-04-25T02:50:49.828Z,9.30
2018-04-25T02:53:20.852Z,9.53
2018-04-25T02:55:51.810Z,10.43
2018-04-25T02:58:22.807Z,10.87
2018-04-25T03:00:53.820Z,10.53
2018-04-25T03:03:24.832Z,9.53
2018-04-25T03:05:55.826Z,10.97
2018-04-25T03:08:26.778Z,10.63
2018-04-25T03:10:57.773Z,9.90
2018-04-25T03:13:28.783Z,10.27
2018-04-25T03:15:59.770Z,10.20
2018-04-25T03:18:30.765Z,10.30
2018-04-25T03:21:01.772Z,10.40
2018-04-25T03:23:32.771Z,10.77
2018-04-25T03:26:03.788Z,10.37
2018-04-25T03:28:41.759Z,10.50
2018-04-25T03:31:12.729Z,10.40
2018-04-25T03:33:43.712Z,13.23
2018-04-25T03:36:14.705Z,12.13
2018-04-25T03:38:45.696Z,13.47
2018-04-25T03:41:16.720Z,13.60
2018-04-25T03:43:47.760Z,13.77
2018-04-25T03:46:18.767Z,12.53
2018-04-25T03:48:49.771Z,14.43
2018-04-25T03:51:20.753Z,13.77
2018-04-25T03:53:51.796Z,18.53
2018-04-25T03:56:22.827Z,14.10
2018-04-25T03:58:53.840Z,16.03
2018-04-25T04:01:24.834Z,14.57
2018-04-25T04:03:55.793Z,13.63
2018-04-25T04:06:26.806Z,15.07
2018-04-25T04:08:57.811Z,14.57
2018-04-25T04:11:28.939Z,15.73
2018-04-25T04:13:59.941Z,15.77
2018-04-25T04:16:30.949Z,14.63
2018-04-25T04:19:01.928Z,15.83
2018-04-25T04:21:32.910Z,14.97
2018-04-25T04:24:03.938Z,15.03
2018-04-25T04:26:34.976Z,14.03
2018-04-25T04:29:06.970Z,15.47
2018-04-25T04:31:37.977Z,14.67
2018-04-25T04:34:09.020Z,15.40
2018-04-25T04:36:40.059Z,14.27
2018-04-25T04:39:11.070Z,15.40
2018-04-25T04:41:42.053Z,14.10
2018-04-25T04:44:13.053Z,14.37
2018-04-25T04:46:44.062Z,13.40
2018-04-25T04:49:15.045Z,15.17
2018-04-25T04:51:46.003Z,15.30
2018-04-25T04:54:16.999Z,13.90
2018-04-25T04:56:48.018Z,14.50
2018-04-25T04:59:19.060Z,14.10
2018-04-25T05:01:50.099Z,13.90
2018-04-25T05:04:21.098Z,14.13
2018-04-25T05:06:52.148Z,13.43
2018-04-25T05:09:23.162Z,14.73
2018-04-25T05:11:54.164Z,13.70
2018-04-25T05:14:25.137Z,15.60
2018-04-25T05:16:56.149Z,13.63
2018-04-25T05:19:27.147Z,13.67
2018-04-25T05:21:58.198Z,12.87
2018-04-25T05:24:29.295Z,16.70
2018-04-25T05:27:00.258Z,19.47
2018-04-25T05:29:31.312Z,12.30
2018-04-25T05:32:02.337Z,11.90
2018-04-25T05:34:33.315Z,10.87
2018-04-25T05:37:04.326Z,13.43
2018-04-25T05:39:35.349Z,12.80
2018-04-25T05:42:06.335Z,9.93
2018-04-25T05:44:37.351Z,9.30
2018-04-25T05:47:08.365Z,11.03
2018-04-25T05:49:39.386Z,9.70
2018-04-25T05:52:10.433Z,9.73
2018-04-25T05:54:41.433Z,9.90
2018-04-25T05:57:12.429Z,9.60
2018-04-25T05:59:43.465Z,8.50
2018-04-25T06:02:14.482Z,8.40
2018-04-25T06:04:45.516Z,8.83
2018-04-25T06:07:16.558Z,8.63
2018-04-25T06:09:47.530Z,8.03
2018-04-25T06:12:18.555Z,8.43
2018-04-25T06:14:49.524Z,7.97
2018-04-25T06:17:20.599Z,6.97
2018-04-25T06:19:51.602Z,8.63
2018-04-25T06:22:22.612Z,7.57
2018-04-25T06:24:53.564Z,7.20
2018-04-25T06:27:24.559Z,8.30
2018-04-25T06:29:55.567Z,7.13
2018-04-25T06:32:26.608Z,8.20
2018-04-25T06:35:04.752Z,6.43
2018-04-25T06:37:35.785Z,9.67
2018-04-25T06:40:06.804Z,7.77
2018-04-25T06:42:37.807Z,6.63
2018-04-25T06:45:08.841Z,7.37
2018-04-25T06:47:39.875Z,11.53
2018-04-25T06:50:10.918Z,6.60
2018-04-25T06:52:41.906Z,7.10
2018-04-25T06:55:12.971Z,6.90
2018-04-25T06:57:43.980Z,6.63
2018-04-25T07:00:14.979Z,8.77
2018-04-25T07:02:45.963Z,6.75
2018-04-25T07:05:16.996Z,6.50
2018-04-25T07:07:48.065Z,8.30
2018-04-25T07:10:19.142Z,8.18
2018-04-25T07:12:50.153Z,8.77
2018-04-25T07:15:21.134Z,7.03
2018-04-25T07:17:52.172Z,7.12
2018-04-25T07:20:23.157Z,9.32
2018-04-25T07:22:54.182Z,6.82
2018-04-25T07:25:25.170Z,7.18
2018-04-25T07:27:56.161Z,6.80
2018-04-25T07:30:27.200Z,6.60
2018-04-25T07:32:58.178Z,7.55
2018-04-25T07:35:29.263Z,8.15
2018-04-25T07:38:00.305Z,7.20
2018-04-25T07:40:31.370Z,10.27
2018-04-25T07:43:02.446Z,8.98
2018-04-25T07:45:33.481Z,6.68
2018-04-25T07:48:04.528Z,8.35
2018-04-25T07:50:35.533Z,17.62
2018-04-25T07:53:06.550Z,7.87
2018-04-25T07:55:37.549Z,8.55
2018-04-25T07:58:08.581Z,7.03
2018-04-25T08:00:39.622Z,6.65
2018-04-25T08:03:10.635Z,8.17
2018-04-25T08:05:41.599Z,7.15
2018-04-25T08:08:12.617Z,10.23
2018-04-25T08:10:43.592Z,8.80
2018-04-25T08:13:26.850Z,10.25
2018-04-25T08:16:10.016Z,6.62
2018-04-25T08:18:51.155Z,8.40
2018-04-25T08:21:34.448Z,7.93
2018-04-25T08:24:05.560Z,6.87
2018-04-25T08:26:36.572Z,6.03
2018-04-25T08:29:07.576Z,6.95
2018-04-25T08:31:38.584Z,14.50
2018-04-25T08:34:09.678Z,9.65
2018-04-25T08:36:40.733Z,10.48
2018-04-25T08:39:11.784Z,6.35
2018-04-25T08:41:42.778Z,8.48
2018-04-25T08:44:13.792Z,9.23
2018-04-25T08:46:44.795Z,8.05
2018-04-25T08:49:15.802Z,5.80
2018-04-25T08:51:46.853Z,8.65
2018-04-25T08:54:17.827Z,8.05
2018-04-25T08:56:48.904Z,5.78
2018-04-25T08:59:19.939Z,8.07
2018-04-25T09:01:50.939Z,8.68
2018-04-25T09:04:21.911Z,6.28
2018-04-25T09:06:52.897Z,7.97
2018-04-25T09:09:23.914Z,7.20
2018-04-25T09:11:54.943Z,6.80
2018-04-25T09:14:25.913Z,7.30
2018-04-25T09:16:56.921Z,7.32
2018-04-25T09:19:27.971Z,9.20
2018-04-25T09:21:59.026Z,10.38
2018-04-25T09:24:30.096Z,9.27
2018-04-25T09:27:01.120Z,9.15
2018-04-25T09:29:32.125Z,6.50
2018-04-25T09:32:03.141Z,7.62
2018-04-25T09:34:34.149Z,12.77
2018-04-25T09:37:05.156Z,12.48
2018-04-25T09:39:36.196Z,8.43
2018-04-25T09:42:07.198Z,8.88
2018-04-25T09:44:38.213Z,6.25
2018-04-25T09:47:09.316Z,9.60
2018-04-25T09:49:40.391Z,6.68
2018-04-25T09:52:11.427Z,12.48
2018-04-25T09:54:42.466Z,10.02
2018-04-25T09:57:13.478Z,9.60
2018-04-25T09:59:44.488Z,13.43
2018-04-25T10:02:21.572Z,10.35
2018-04-25T10:04:52.646Z,10.18
2018-04-25T10:07:23.605Z,6.37
2018-04-25T10:09:54.641Z,8.85
2018-04-25T10:12:25.663Z,7.95
2018-04-25T10:14:56.673Z,7.07
2018-04-25T10:17:27.683Z,7.93
2018-04-25T10:19:58.717Z,7.72
2018-04-25T10:22:29.774Z,6.35
2018-04-25T10:25:00.766Z,7.82
2018-04-25T10:27:31.811Z,10.07
2018-04-25T10:30:02.847Z,10.65
2018-04-25T10:32:33.847Z,6.87
2018-04-25T10:35:04.930Z,6.95
2018-04-25T10:37:35.969Z,9.20
2018-04-25T10:40:07.044Z,9.45
2018-04-25T10:42:38.010Z,7.15
2018-04-25T10:45:09.074Z,8.82
2018-04-25T10:47:40.062Z,7.12
2018-04-25T10:50:11.052Z,6.75
2018-04-25T10:52:42.067Z,6.15
2018-04-25T10:55:13.123Z,8.90
2018-04-25T10:57:44.094Z,9.43
2018-04-25T11:00:15.146Z,9.13
2018-04-25T11:02:46.217Z,8.15
2018-04-25T11:05:17.267Z,8.77
2018-04-25T11:07:48.286Z,12.17
2018-04-25T11:10:19.315Z,7.20
2018-04-25T11:12:50.425Z,10.03
2018-04-25T11:15:21.489Z,8.70
2018-04-25T11:17:52.531Z,9.73
2018-04-25T11:20:23.620Z,10.93
2018-04-25T11:22:54.533Z,10.67
2018-04-25T11:25:25.573Z,8.30
2018-04-25T11:27:56.618Z,12.20
2018-04-25T11:30:28.141Z,8.20
2018-04-25T11:32:59.177Z,10.47
2018-04-25T11:35:30.209Z,9.10
2018-04-25T11:38:01.187Z,9.90
2018-04-25T11:40:32.258Z,6.33
2018-04-25T11:43:03.288Z,7.43
2018-04-25T11:45:34.340Z,9.87
2018-04-25T11:48:05.347Z,8.87
2018-04-25T11:50:36.334Z,10.60
2018-04-25T11:53:07.301Z,8.77
2018-04-25T11:55:38.313Z,6.90
2018-04-25T11:58:09.323Z,10.23
2018-04-25T12:00:40.368Z,9.40
2018-04-25T12:03:11.409Z,9.77
2018-04-25T12:05:42.416Z,9.50
2018-04-25T12:08:13.425Z,12.57
2018-04-25T12:10:44.417Z,11.77
2018-04-25T12:13:15.540Z,8.43
2018-04-25T12:15:46.559Z,9.17
2018-04-25T12:18:17.549Z,8.63
2018-04-25T12:20:48.577Z,10.73
2018-04-25T12:23:19.582Z,10.17
2018-04-25T12:25:50.590Z,9.43
2018-04-25T12:28:21.576Z,8.37
2018-04-25T12:30:52.553Z,7.37
2018-04-25T12:33:23.559Z,9.13
2018-04-25T12:35:54.589Z,9.63
2018-04-25T12:38:25.630Z,9.23
2018-04-25T12:40:56.667Z,11.67
2018-04-25T12:43:28.504Z,8.93
2018-04-25T12:45:59.487Z,7.03
2018-04-25T12:48:30.509Z,13.43
2018-04-25T12:51:01.512Z,7.83
2018-04-25T12:53:32.505Z,9.47
2018-04-25T12:56:03.512Z,7.63
2018-04-25T12:58:34.595Z,9.67
2018-04-25T13:01:05.651Z,12.33
2018-04-25T13:03:36.697Z,8.10
2018-04-25T13:06:07.781Z,6.57
2018-04-25T13:08:38.832Z,11.53
2018-04-25T13:11:09.867Z,10.73
2018-04-25T13:13:40.867Z,10.93
2018-04-25T13:16:11.887Z,9.40
2018-04-25T13:18:42.906Z,6.03
2018-04-25T13:21:13.943Z,10.70
2018-04-25T13:23:44.932Z,7.90
2018-04-25T13:26:15.941Z,7.77
2018-04-25T13:28:46.990Z,5.53
2018-04-25T13:31:18.059Z,8.10
2018-04-25T13:33:49.061Z,9.97
2018-04-25T13:36:20.157Z,8.87
2018-04-25T13:38:51.147Z,7.10
2018-04-25T13:41:22.196Z,9.40
2018-04-25T13:43:53.281Z,6.20
2018-04-25T13:46:24.237Z,12.03
2018-04-25T13:48:55.227Z,6.90
2018-04-25T13:51:26.267Z,10.37
2018-04-25T13:53:57.304Z,8.70
2018-04-25T13:56:28.291Z,6.67
2018-04-25T13:58:59.352Z,6.77
2018-04-25T14:01:30.453Z,8.23
2018-04-25T14:04:01.530Z,21.30
2018-04-25T14:06:32.513Z,10.77
2018-04-25T14:09:03.599Z,7.17
2018-04-25T14:11:34.681Z,6.23
2018-04-25T14:14:05.674Z,7.67
2018-04-25T14:16:36.714Z,6.13
2018-04-25T14:19:07.738Z,9.43
2018-04-25T14:21:39.109Z,6.97
2018-04-25T14:24:10.475Z,6.70
2018-04-25T14:26:41.548Z,7.80
2018-04-25T14:29:12.634Z,9.73
2018-04-25T14:31:43.609Z,6.80
2018-04-25T14:34:14.653Z,7.47
2018-04-25T14:36:45.690Z,8.17
2018-04-25T14:39:16.731Z,9.80
2018-04-25T14:41:47.707Z,7.80
2018-04-25T14:44:18.730Z,9.53
2018-04-25T14:46:56.595Z,7.97
2018-04-25T14:49:27.599Z,8.10
2018-04-25T14:51:58.634Z,6.67
2018-04-25T14:54:29.757Z,7.97
2018-04-25T14:57:00.785Z,4.93
2018-04-25T14:59:31.796Z,8.67
2018-04-25T15:02:02.807Z,8.97
2018-04-25T15:04:33.838Z,8.93
2018-04-25T15:07:04.885Z,9.90
2018-04-25T15:09:35.884Z,7.30
2018-04-25T15:12:06.966Z,8.50
2018-04-25T15:14:38.035Z,7.60
2018-04-25T15:17:09.027Z,8.83
2018-04-25T15:19:40.158Z,19.37
2018-04-25T15:22:11.191Z,9.57
2018-04-25T15:24:42.177Z,9.27
2018-04-25T15:27:13.161Z,7.90
2018-04-25T15:29:44.248Z,7.23
2018-04-25T15:32:15.260Z,7.60
2018-04-25T15:34:46.321Z,7.63
2018-04-25T15:37:17.315Z,9.93
2018-04-25T15:39:48.357Z,8.93
2018-04-25T15:42:19.360Z,8.07
2018-04-25T15:44:50.390Z,6.60
2018-04-25T15:47:21.368Z,6.00
2018-04-25T15:49:52.376Z,8.00
2018-04-25T15:52:23.372Z,6.63
2018-04-25T15:54:54.356Z,9.63
2018-04-25T15:57:25.451Z,7.67
2018-04-25T15:59:56.468Z,10.23
2018-04-25T16:02:27.504Z,7.03
2018-04-25T16:04:58.473Z,6.70
2018-04-25T16:07:29.510Z,7.77
2018-04-25T16:10:00.521Z,8.93
2018-04-25T16:12:31.597Z,9.27
2018-04-25T16:15:02.648Z,7.03
2018-04-25T16:17:33.688Z,10.00
2018-04-25T16:20:04.757Z,8.10
2018-04-25T16:22:35.773Z,5.87
2018-04-25T16:25:07.148Z,5.47
2018-04-25T16:27:38.198Z,7.30
2018-04-25T16:30:09.208Z,5.37
2018-04-25T16:32:40.383Z,9.57
2018-04-25T16:35:11.387Z,7.43
2018-04-25T16:37:42.457Z,5.70
2018-04-25T16:40:13.460Z,6.63
2018-04-25T16:42:44.485Z,5.03
2018-04-25T16:45:15.542Z,11.10
2018-04-25T16:47:46.557Z,9.33
2018-04-25T16:50:17.603Z,8.17
2018-04-25T16:52:48.562Z,7.27
2018-04-25T16:55:19.579Z,5.47
2018-04-25T16:57:50.667Z,6.27
2018-04-25T17:00:21.688Z,7.37
2018-04-25T17:02:52.698Z,8.57
2018-04-25T17:05:23.771Z,7.83
2018-04-25T17:07:54.822Z,6.10
2018-04-25T17:10:25.884Z,5.13
2018-04-25T17:12:56.907Z,7.07
2018-04-25T17:15:27.936Z,5.70
2018-04-25T17:17:58.967Z,7.33
2018-04-25T17:20:30.052Z,4.53
2018-04-25T17:23:01.175Z,7.57
2018-04-25T17:25:32.083Z,5.27
2018-04-25T17:28:03.100Z,5.33
2018-04-25T17:30:34.142Z,10.73
2018-04-25T17:33:05.456Z,4.47
2018-04-25T17:35:36.612Z,8.17
2018-04-25T17:38:07.672Z,8.90
2018-04-25T17:40:38.686Z,7.70
2018-04-25T17:43:09.729Z,7.73
2018-04-25T17:45:40.771Z,9.93
2018-04-25T17:48:11.799Z,8.03
2018-04-25T17:50:42.813Z,4.10
2018-04-25T17:53:13.841Z,6.20
2018-04-25T17:55:44.872Z,5.33
2018-04-25T17:58:15.942Z,7.27
2018-04-25T18:00:46.978Z,6.47
2018-04-25T18:03:18.141Z,9.30
2018-04-25T18:05:49.168Z,6.97
2018-04-25T18:08:20.212Z,4.67
2018-04-25T18:10:51.250Z,4.73
2018-04-25T18:13:23.126Z,10.23
2018-04-25T18:15:54.135Z,5.23
2018-04-25T18:18:25.145Z,7.23
2018-04-25T18:20:56.189Z,5.30
2018-04-25T18:23:27.289Z,6.30
2018-04-25T18:25:58.312Z,8.20
2018-04-25T18:28:29.324Z,5.97
2018-04-25T18:31:00.348Z,5.73
2018-04-25T18:33:31.400Z,7.30
2018-04-25T18:36:02.398Z,5.33
2018-04-25T18:38:33.440Z,7.93
2018-04-25T18:41:04.517Z,6.47
2018-04-25T18:43:35.812Z,7.97
2018-04-25T18:46:06.907Z,5.73
2018-04-25T18:48:37.947Z,4.97
2018-04-25T18:51:09.018Z,7.63
2018-04-25T18:53:40.056Z,4.67
2018-04-25T18:56:11.107Z,5.50
2018-04-25T18:58:42.130Z,4.67
2018-04-25T19:01:13.188Z,7.73
2018-04-25T19:03:44.300Z,5.93
2018-04-25T19:06:15.335Z,4.67
2018-04-25T19:08:46.745Z,6.13
2018-04-25T19:11:17.861Z,4.57
2018-04-25T19:13:49.292Z,6.17
2018-04-25T19:16:20.558Z,6.20
2018-04-25T19:18:51.535Z,7.50
2018-04-25T19:21:22.931Z,6.53
2018-04-25T19:23:54.021Z,3.50
2018-04-25T19:26:25.289Z,5.47
2018-04-25T19:28:56.308Z,5.23
2018-04-25T19:31:27.697Z,4.10
2018-04-25T19:33:59.077Z,5.07
2018-04-25T19:36:30.528Z,3.57
2018-04-25T19:39:01.560Z,3.90
2018-04-25T19:41:32.637Z,3.50
2018-04-25T19:44:03.642Z,4.00
2018-04-25T19:46:34.756Z,7.27
2018-04-25T19:49:05.807Z,5.80
2018-04-25T19:51:36.842Z,4.20
2018-04-25T19:54:07.873Z,4.03
2018-04-25T19:56:39.396Z,5.10
2018-04-25T19:59:10.467Z,5.27
2018-04-25T20:01:41.493Z,4.03
2018-04-25T20:04:12.529Z,3.40
2018-04-25T20:06:43.568Z,6.73
2018-04-25T20:09:14.572Z,3.13
2018-04-25T20:11:45.981Z,5.40
2018-04-25T20:14:18.349Z,3.53
2018-04-25T20:16:49.505Z,3.20
2018-04-25T20:19:20.864Z,4.73
2018-04-25T20:21:51.923Z,5.90
2018-04-25T20:24:23.241Z,3.53
2018-04-25T20:26:54.311Z,3.73
2018-04-25T20:29:25.346Z,4.07
2018-04-25T20:31:56.464Z,7.77
2018-04-25T20:34:27.449Z,3.23
2018-04-25T20:36:58.508Z,4.07
2018-04-25T20:39:29.512Z,6.70
2018-04-25T20:42:00.587Z,3.63
2018-04-25T20:44:31.633Z,4.73
2018-04-25T20:47:02.722Z,3.23
2018-04-25T20:49:33.774Z,4.20
2018-04-25T20:52:04.791Z,5.17
2018-04-25T20:54:35.791Z,3.40
2018-04-25T20:57:06.778Z,6.07
2018-04-25T20:59:37.816Z,4.83
2018-04-25T21:02:09.116Z,4.23
2018-04-25T21:04:40.469Z,4.73
2018-04-25T21:07:11.511Z,7.00
2018-04-25T21:09:42.525Z,3.93
2018-04-25T21:12:13.565Z,5.87
2018-04-25T21:14:44.596Z,3.80
2018-04-25T21:17:15.570Z,4.27
2018-04-25T21:19:46.585Z,3.43
2018-04-25T21:22:17.585Z,4.53
2018-04-25T21:24:48.717Z,3.67
2018-04-25T21:27:19.676Z,3.90
2018-04-25T21:29:50.699Z,4.00
2018-04-25T21:32:21.667Z,4.17
2018-04-25T21:34:52.641Z,3.27
2018-04-25T21:37:23.657Z,3.83
2018-04-25T21:39:54.642Z,4.87
2018-04-25T21:42:25.662Z,5.43
2018-04-25T21:44:56.668Z,3.90
2018-04-25T21:47:27.696Z,2.90
2018-04-25T21:49:58.742Z,2.50
2018-04-25T21:52:29.775Z,3.70
2018-04-25T21:55:00.722Z,2.67
2018-04-25T21:57:31.768Z,2.97
2018-04-25T22:00:02.812Z,3.87
2018-04-25T22:02:33.837Z,2.83
2018-04-25T22:05:04.846Z,4.53
2018-04-25T22:07:35.884Z,2.43
2018-04-25T22:10:06.902Z,3.63
2018-04-25T22:12:37.909Z,3.23
2018-04-25T22:15:08.895Z,1.93
2018-04-25T22:17:39.886Z,2.50
2018-04-25T22:20:10.955Z,1.93
2018-04-25T22:22:41.966Z,2.00
2018-04-25T22:25:13.020Z,1.80
2018-04-25T22:27:43.994Z,1.90
2018-04-25T22:30:15.038Z,1.70
2018-04-25T22:32:46.010Z,2.40
2018-04-25T22:35:17.007Z,1.40
2018-04-25T22:37:48.008Z,1.90
2018-04-25T22:40:19.056Z,2.07
2018-04-25T22:42:50.095Z,2.33
2018-04-25T22:45:21.107Z,2.07
2018-04-25T22:47:52.154Z,1.60
2018-04-25T22:50:23.196Z,1.87
2018-04-25T22:52:54.209Z,2.97
2018-04-25T22:55:25.204Z,1.50
2018-04-25T22:57:56.210Z,2.27
2018-04-25T23:00:27.195Z,2.00
2018-04-25T23:02:58.254Z,2.73
2018-04-25T23:05:29.275Z,1.80
2018-04-25T23:08:00.302Z,1.83
2018-04-25T23:10:31.279Z,2.23
2018-04-25T23:13:02.318Z,1.73
2018-04-25T23:15:33.393Z,3.37
2018-04-25T23:18:04.405Z,2.70
2018-04-25T23:20:35.403Z,2.50
2018-04-25T23:23:06.418Z,2.03
2018-04-25T23:25:37.421Z,2.50
2018-04-25T23:28:08.426Z,1.70
2018-04-25T23:30:39.436Z,2.00
2018-04-25T23:33:10.430Z,2.00
2018-04-25T23:35:41.415Z,2.47
2018-04-25T23:38:12.398Z,2.30
2018-04-25T23:40:43.394Z,1.80
2018-04-25T23:43:14.364Z,2.00
2018-04-25T23:45:45.428Z,2.67
2018-04-25T23:48:16.443Z,2.17
2018-04-25T23:50:47.455Z,2.60
2018-04-25T23:53:18.494Z,1.87
2018-04-25T23:55:49.458Z,2.73
2018-04-25T23:58:20.478Z,2.10
